Portada
METAR-TAF:

METAR-TAF

Aeroports :

Aeroport de Marràqueix

Marràqueix, Marroc

latitud: 31-37N, longitud: 008-02W, altitud: 468 m

Observació

L'informe es va fer fa 26 minuts, a les 12:30 UTC
Vent 5 kt del Oest, variant entre Sud/Sud-Oest i Nord/Nord-Oest
Temperatura 26°C
Humitat 54%
Pressió 1011 hPa
Visibilitat: 6000 m
Núvols disperses a una alçada de 2300 ft

METAR: GMMX 301230Z 26005KT 200V340 6000 SCT023 26/16 Q1011 NOSIG

Hora: 13:56 (12:56 UTC)

Pronòstic

L'informe es va fer fa 1 hora i 56 minuts, a les 11:00 UTC
Pronòstic vàlid del 30 a les 12 UTC al 31 a les 18 UTC
Vent 6 kt del Oest
Visibilitat: 8000 m
Núvols disperses a una alçada de 2300 ft
Temporalment
l' 30 a les 15 UTC al 30 a les 22 UTC
Vent 16 kt del Nord-Oest
Escasses núvols a una alçada de 3300 ft, Cumulonimbus.

TAF: GMMX 301100Z 3012/3118 26006KT 8000 SCT023 TEMPO 3015/3022 32016KT FEW033CB

Observacions i pronòstics meteorològics de més de 4000 aeroports (METAR i TAF).

Les estacions disponibles són els punts grocs i vermells al mapa.

Posi el ratolí al punt desitjat per veure el nom de l'estació.

Feu clic per veure les observacions i els pronòstics meteorològics.

Per canviar el mapa: feu clic els botons verds amb una creu de color negre per apropar; al botó verd amb un guió per allunyar la imatge; o en les fletxes verdes per a mapes adjacents.


METAR-TAF: